Time;durP1;ratioP1;P1;durP2;ratioP2;P2;SDS_P1;SDS_P2;PMS_P1;PMS_P2;Temp;Humidity;BMP_temperature;BMP_pressure;BME280_temperature;BME280_humidity;BME280_pressure;Samples;Min_cycle;Max_cycle;Signal;HPM_P1;HPM_P2
2022/01/06 00:00:04;;;;;;;4.82;1.27;;;;;;;-0.07;93.35;100701.53;5051376;28;20175;-79
2022/01/06 00:02:38;;;;;;;4.38;1.63;;;;;;;-0.04;93.85;100714.72;5050573;28;20225;-78
2022/01/06 00:05:04;;;;;;;3.83;1.33;;;;;;;0.02;93.62;100710.34;5052161;28;20226;-78
2022/01/06 00:07:31;;;;;;;4.43;1.48;;;;;;;-0.03;93.25;100705.94;5033583;28;20279;-78
2022/01/06 00:09:57;;;;;;;3.17;1.80;;;;;;;-0.11;93.30;100727.84;5051729;28;20614;-78
2022/01/06 00:12:29;;;;;;;2.50;0.98;;;;;;;-0.09;93.58;100724.38;5050651;28;20256;-79
2022/01/06 00:23:21;;;;;;;5.68;1.42;;;;;;;-0.23;94.03;100733.97;5051374;28;20199;-79
2022/01/06 00:25:48;;;;;;;2.80;1.20;;;;;;;-0.23;94.29;100736.59;5049982;28;20276;-79
2022/01/06 00:28:14;;;;;;;2.53;0.93;;;;;;;-0.26;94.23;100742.72;5068961;28;20171;-78
2022/01/06 00:30:39;;;;;;;2.88;1.10;;;;;;;-0.25;94.40;100754.13;5070098;28;20261;-79
2022/01/06 00:33:05;;;;;;;3.60;1.10;;;;;;;-0.37;94.58;100757.59;5070635;28;20187;-78
2022/01/06 00:35:34;;;;;;;3.88;1.30;;;;;;;-0.29;94.69;100763.75;5071407;28;20174;-78
2022/01/06 00:38:00;;;;;;;4.55;1.13;;;;;;;-0.29;94.60;100749.72;5070262;28;20178;-77
2022/01/06 00:40:26;;;;;;;6.53;1.45;;;;;;;-0.33;94.65;100759.38;5069893;28;20178;-77
2022/01/06 00:42:51;;;;;;;2.70;1.05;;;;;;;-0.48;94.43;100761.91;5070138;28;20205;-77
2022/01/06 00:45:17;;;;;;;3.25;1.00;;;;;;;-0.44;94.39;100761.94;5069909;28;20201;-77
2022/01/06 00:47:44;;;;;;;4.97;1.23;;;;;;;-0.45;95.13;100772.47;5070722;28;20171;-77
2022/01/06 00:50:10;;;;;;;3.95;1.23;;;;;;;-0.49;95.19;100776.81;5070382;28;20203;-78
2022/01/06 00:52:35;;;;;;;4.03;1.20;;;;;;;-0.43;94.80;100779.50;5070549;28;20555;-78
2022/01/06 00:55:01;;;;;;;7.25;1.58;;;;;;;-0.46;95.49;100768.06;5072966;28;20634;-78
2022/01/06 00:57:26;;;;;;;2.58;1.17;;;;;;;-0.45;94.88;100769.84;5073249;28;20201;-78
2022/01/06 00:59:52;;;;;;;2.22;1.10;;;;;;;-0.46;95.36;100781.22;5072122;28;20166;-78
2022/01/06 01:02:17;;;;;;;2.55;0.88;;;;;;;-0.47;95.08;100780.34;5072167;28;20199;-78
2022/01/06 01:04:42;;;;;;;5.20;1.40;;;;;;;-0.45;95.19;100790.88;5072645;28;20254;-78
2022/01/06 01:07:08;;;;;;;9.05;1.50;;;;;;;-0.57;95.42;100794.31;5071748;28;20187;-78
2022/01/06 01:09:34;;;;;;;6.18;1.52;;;;;;;-0.61;96.14;100810.97;5073807;28;20186;-78
2022/01/06 01:12:02;;;;;;;5.15;1.48;;;;;;;-0.53;95.87;100803.97;5073379;28;20191;-78
2022/01/06 01:14:32;;;;;;;5.85;1.45;;;;;;;-0.57;96.38;100810.09;5072802;28;20173;-78
2022/01/06 01:17:01;;;;;;;6.32;1.35;;;;;;;-0.56;96.62;100803.97;5071144;28;20245;-78
2022/01/06 01:19:28;;;;;;;7.13;1.20;;;;;;;-0.52;97.04;100810.16;5072312;28;20261;-78
2022/01/06 01:21:55;;;;;;;5.00;1.90;;;;;;;-0.55;96.71;100803.09;5071693;28;20206;-78
2022/01/06 01:24:22;;;;;;;4.93;1.17;;;;;;;-0.61;96.56;100805.69;5072061;28;20236;-78
2022/01/06 01:26:47;;;;;;;6.93;1.58;;;;;;;-0.69;96.82;100808.25;5072171;28;20175;-78
2022/01/06 01:29:16;;;;;;;2.67;1.10;;;;;;;-0.73;96.40;100795.94;5071121;28;20312;-78
2022/01/06 01:31:46;;;;;;;5.93;1.40;;;;;;;-0.75;96.82;100800.31;5072707;28;20182;-78
2022/01/06 01:34:12;;;;;;;2.53;1.30;;;;;;;-0.73;96.72;100798.59;5073783;28;20182;-78
2022/01/06 01:36:39;;;;;;;5.45;2.58;;;;;;;-0.69;97.01;100807.38;5070948;28;20174;-78
2022/01/06 01:39:05;;;;;;;5.93;1.42;;;;;;;-0.76;97.38;100816.13;5071549;28;20179;-78
2022/01/06 01:41:32;;;;;;;5.68;1.95;;;;;;;-0.74;97.35;100833.66;5071886;28;20198;-78
2022/01/06 01:43:57;;;;;;;5.07;1.88;;;;;;;-0.65;97.25;100853.91;5072759;28;20224;-78
2022/01/06 01:46:30;;;;;;;4.90;1.92;;;;;;;-0.59;97.09;100861.84;5071399;28;20178;-78
2022/01/06 01:49:30;;;;;;;6.65;2.50;;;;;;;-0.56;96.62;100871.50;5072606;28;20186;-78
2022/01/06 01:51:57;;;;;;;6.18;1.50;;;;;;;-0.51;96.91;100870.66;5071810;28;20198;-78
2022/01/06 01:54:22;;;;;;;5.00;1.70;;;;;;;-0.45;96.76;100865.44;5072827;28;20533;-78
2022/01/06 01:56:48;;;;;;;5.43;1.30;;;;;;;-0.48;96.51;100857.53;5073709;28;20352;-78
2022/01/06 01:59:14;;;;;;;4.88;1.20;;;;;;;-0.42;96.41;100877.75;5072985;28;20166;-78
2022/01/06 02:01:42;;;;;;;2.88;1.50;;;;;;;-0.43;95.61;100889.16;5071609;28;20727;-78
2022/01/06 02:04:08;;;;;;;6.35;1.63;;;;;;;-0.39;95.78;100903.22;5072346;28;20159;-77
2022/01/06 02:06:33;;;;;;;4.20;1.25;;;;;;;-0.36;95.27;100919.91;5068400;28;20171;-78
2022/01/06 02:08:59;;;;;;;6.25;1.40;;;;;;;-0.33;95.45;100932.22;5070105;28;20228;-77
2022/01/06 02:11:25;;;;;;;6.53;1.48;;;;;;;-0.27;94.86;100934.91;5068555;28;20651;-77
2022/01/06 02:13:53;;;;;;;4.38;1.48;;;;;;;-0.24;95.37;100948.06;5070041;28;20163;-77
2022/01/06 02:16:24;;;;;;;2.78;1.45;;;;;;;-0.16;95.57;100934.97;5064757;28;20564;-79
2022/01/06 02:18:50;;;;;;;4.03;1.10;;;;;;;-0.19;95.90;100927.94;5069879;28;20179;-78
2022/01/06 02:21:16;;;;;;;3.63;1.42;;;;;;;-0.22;96.10;100926.19;5069611;28;20247;-77
2022/01/06 02:23:42;;;;;;;5.25;1.30;;;;;;;-0.18;97.48;100931.47;5070089;28;20167;-77
2022/01/06 02:26:07;;;;;;;2.08;1.23;;;;;;;-0.20;98.21;100944.59;5062252;28;20190;-77
2022/01/06 02:28:33;;;;;;;8.45;1.20;;;;;;;-0.24;99.66;100945.44;5063916;28;20187;-77
2022/01/06 02:30:58;;;;;;;3.10;0.90;;;;;;;-0.14;100.00;100956.94;5067909;28;20237;-77
2022/01/06 02:33:25;;;;;;;2.25;1.00;;;;;;;-0.14;100.00;100960.44;5072536;28;20167;-78
2022/01/06 02:35:51;;;;;;;2.13;1.00;;;;;;;-0.06;100.00;100950.88;5072943;28;20179;-78
2022/01/06 02:38:18;;;;;;;8.23;1.00;;;;;;;-0.10;100.00;100958.72;5072732;28;20175;-78
2022/01/06 02:40:44;;;;;;;3.63;1.10;;;;;;;-0.20;100.00;100955.13;5073727;28;20181;-78
2022/01/06 02:43:13;;;;;;;4.05;1.10;;;;;;;-0.22;100.00;100957.78;5072858;28;20207;-78
2022/01/06 02:45:39;;;;;;;6.68;1.20;;;;;;;-0.20;100.00;100955.13;5073040;28;20179;-78
2022/01/06 02:48:10;;;;;;;5.22;0.73;;;;;;;-0.24;100.00;100969.13;5072577;28;20603;-78
2022/01/06 02:50:41;;;;;;;5.32;1.02;;;;;;;-0.21;100.00;100988.50;5073239;28;20222;-78
2022/01/06 02:53:09;;;;;;;4.25;1.00;;;;;;;-0.16;100.00;100967.47;5071663;28;20214;-78
2022/01/06 02:55:38;;;;;;;4.72;0.75;;;;;;;-0.14;100.00;100975.38;5072467;28;20227;-78
2022/01/06 02:58:03;;;;;;;1.63;0.70;;;;;;;-0.13;100.00;100992.94;5071230;28;20230;-78
2022/01/06 03:00:29;;;;;;;2.40;0.80;;;;;;;-0.07;100.00;100990.34;5071244;28;20171;-77
2022/01/06 03:02:54;;;;;;;2.45;1.02;;;;;;;-0.09;100.00;100978.91;5067884;28;20198;-77
2022/01/06 03:05:20;;;;;;;2.88;0.70;;;;;;;0.04;100.00;100991.31;5069381;28;20163;-77
2022/01/06 03:07:46;;;;;;;4.68;1.20;;;;;;;0.01;100.00;100990.41;5067731;28;20811;-79
2022/01/06 03:10:15;;;;;;;3.38;0.90;;;;;;;0.01;100.00;100987.78;5067992;28;20195;-78
2022/01/06 03:12:42;;;;;;;4.03;1.10;;;;;;;-0.04;100.00;100987.75;5068346;28;20206;-79
2022/01/06 03:15:10;;;;;;;7.18;1.60;;;;;;;-0.05;100.00;100999.16;5071508;28;20181;-79
2022/01/06 03:17:36;;;;;;;7.28;1.30;;;;;;;-0.08;100.00;100993.88;5072525;28;20545;-79
2022/01/06 03:20:04;;;;;;;2.58;0.90;;;;;;;-0.07;100.00;100999.13;5054515;28;20165;-79
2022/01/06 03:22:29;;;;;;;4.75;0.95;;;;;;;0.04;100.00;100995.69;5071586;28;20188;-79
2022/01/06 03:24:55;;;;;;;5.07;1.00;;;;;;;-0.04;100.00;101009.69;5071781;28;20175;-79
2022/01/06 03:27:20;;;;;;;2.33;0.90;;;;;;;0.00;100.00;101010.63;5070796;28;20624;-78
2022/01/06 03:29:47;;;;;;;1.77;0.63;;;;;;;0.00;100.00;101010.63;5072565;28;20198;-79
2022/01/06 03:32:13;;;;;;;4.53;1.10;;;;;;;0.01;100.00;101012.38;5070866;28;20193;-78
2022/01/06 03:34:38;;;;;;;2.17;1.15;;;;;;;-0.05;100.00;101025.47;5072605;28;20187;-78
2022/01/06 03:37:05;;;;;;;2.60;0.90;;;;;;;-0.04;100.00;101017.59;5072019;28;20167;-77
2022/01/06 03:39:31;;;;;;;5.03;1.00;;;;;;;-0.08;100.00;101002.66;5054372;28;20170;-78
2022/01/06 03:41:56;;;;;;;3.42;0.93;;;;;;;-0.10;100.00;101014.03;5071216;28;20573;-79
2022/01/06 03:44:22;;;;;;;3.42;0.98;;;;;;;-0.15;100.00;101019.28;5072261;28;20234;-79
2022/01/06 03:46:47;;;;;;;4.60;1.63;;;;;;;-0.10;100.00;101014.91;5072240;28;20255;-77
2022/01/06 03:49:13;;;;;;;5.18;1.20;;;;;;;-0.15;100.00;101014.00;5072482;28;20260;-79
2022/01/06 03:51:38;;;;;;;5.97;1.30;;;;;;;-0.15;100.00;101014.00;5072223;28;20255;-78
2022/01/06 03:54:04;;;;;;;6.75;1.17;;;;;;;-0.13;100.00;101016.63;5072650;28;20210;-79
2022/01/06 03:56:29;;;;;;;5.00;1.65;;;;;;;-0.09;100.00;101019.31;5071888;28;20174;-79
2022/01/06 03:58:54;;;;;;;2.58;0.90;;;;;;;0.00;100.00;101021.16;5072237;28;20249;-78
2022/01/06 04:01:20;;;;;;;3.92;1.10;;;;;;;-0.11;100.00;101034.22;5070844;28;20277;-77
2022/01/06 04:03:47;;;;;;;0.95;0.82;;;;;;;-0.11;100.00;101038.59;5054149;28;20220;-77
2022/01/06 04:06:14;;;;;;;4.50;1.10;;;;;;;-0.10;100.00;101035.09;5071878;28;20170;-77
2022/01/06 04:08:39;;;;;;;6.35;1.20;;;;;;;-0.13;100.00;101038.59;5054203;28;20181;-78
2022/01/06 04:11:04;;;;;;;1.80;1.35;;;;;;;-0.15;100.00;101050.88;5072384;28;20683;-77
2022/01/06 04:13:30;;;;;;;3.45;1.15;;;;;;;-0.13;100.00;101043.88;5072112;28;20173;-77
2022/01/06 04:15:57;;;;;;;4.53;1.20;;;;;;;-0.14;100.00;101039.44;5065859;28;20194;-77
2022/01/06 04:18:22;;;;;;;4.32;1.30;;;;;;;-0.08;100.00;101051.81;5068009;28;20206;-77
2022/01/06 04:20:48;;;;;;;2.67;1.30;;;;;;;-0.04;100.00;101066.78;5071863;28;20206;-77
2022/01/06 04:23:13;;;;;;;3.95;1.02;;;;;;;-0.06;100.00;101066.75;5070410;28;20199;-77
2022/01/06 04:25:39;;;;;;;2.80;1.05;;;;;;;-0.04;100.00;101078.19;5069134;28;20179;-77
2022/01/06 04:28:04;;;;;;;5.32;1.40;;;;;;;-0.05;100.00;101079.03;5062086;28;20196;-77
2022/01/06 04:30:30;;;;;;;5.22;1.20;;;;;;;-0.03;100.00;101085.19;5070405;28;20190;-77
2022/01/06 04:32:55;;;;;;;4.88;1.17;;;;;;;-0.13;100.00;101080.75;5070044;28;20198;-79
2022/01/06 04:35:20;;;;;;;7.85;1.40;;;;;;;-0.16;100.00;101087.72;5071766;28;20213;-78
2022/01/06 04:37:46;;;;;;;7.60;1.40;;;;;;;-0.15;100.00;101086.81;5070525;28;20171;-79
2022/01/06 04:40:12;;;;;;;2.58;0.93;;;;;;;-0.15;100.00;101102.63;5070040;28;20183;-78
2022/01/06 04:42:37;;;;;;;3.25;1.00;;;;;;;-0.10;100.00;101090.41;5053494;28;20203;-79
2022/01/06 04:45:04;;;;;;;5.43;1.15;;;;;;;-0.15;100.00;101093.00;5071065;28;20178;-79
2022/01/06 04:47:29;;;;;;;2.40;1.10;;;;;;;-0.12;100.00;101098.28;5067853;28;20170;-79
2022/01/06 04:49:55;;;;;;;3.20;1.02;;;;;;;-0.07;100.00;101088.66;5069734;28;20203;-79
2022/01/06 04:52:20;;;;;;;3.55;1.05;;;;;;;-0.01;100.00;101095.75;5071381;28;20577;-79
2022/01/06 04:54:46;;;;;;;1.10;0.90;;;;;;;-0.11;100.00;101101.78;5070743;28;20560;-78
2022/01/06 04:57:11;;;;;;;2.85;1.00;;;;;;;-0.21;100.00;101109.59;5071338;28;20226;-79
2022/01/06 04:59:36;;;;;;;4.72;1.40;;;;;;;-0.17;100.00;101104.41;5072196;28;20182;-78
2022/01/06 05:02:03;;;;;;;2.60;1.08;;;;;;;-0.26;100.00;101107.81;5070101;28;20206;-79
2022/01/06 05:04:29;;;;;;;2.72;1.00;;;;;;;-0.15;100.00;101105.25;5071496;28;20178;-79
2022/01/06 05:06:54;;;;;;;6.20;1.38;;;;;;;-0.24;100.00;101109.59;5070886;28;20183;-78
2022/01/06 05:09:20;;;;;;;4.75;1.30;;;;;;;-0.22;100.00;101130.66;5069850;28;20206;-79
2022/01/06 05:11:45;;;;;;;3.13;1.33;;;;;;;-0.19;100.00;101128.06;5053371;28;20282;-78
2022/01/06 05:14:10;;;;;;;5.03;1.45;;;;;;;-0.16;100.00;101122.81;5069781;28;20178;-78
2022/01/06 05:16:36;;;;;;;4.43;1.27;;;;;;;-0.24;100.00;101132.38;5070728;28;20631;-78
2022/01/06 05:19:02;;;;;;;2.78;1.40;;;;;;;-0.26;100.00;101132.38;5070070;28;20497;-79
2022/01/06 05:21:32;;;;;;;4.78;1.30;;;;;;;-0.19;100.00;101135.09;5069774;28;20183;-79
2022/01/06 05:23:58;;;;;;;5.63;1.17;;;;;;;-0.18;100.00;101148.25;5071093;28;20183;-79
2022/01/06 05:26:23;;;;;;;5.97;1.38;;;;;;;-0.26;100.00;101145.56;5069413;28;20203;-79
2022/01/06 05:28:49;;;;;;;3.72;1.00;;;;;;;-0.21;100.00;101143.84;5060430;28;20185;-78
2022/01/06 05:31:15;;;;;;;2.97;1.00;;;;;;;-0.19;100.00;101156.16;5069523;28;20239;-79
2022/01/06 05:33:41;;;;;;;3.03;1.10;;;;;;;-0.16;100.00;101153.53;5070918;28;20194;-79
2022/01/06 05:36:06;;;;;;;9.52;1.42;;;;;;;-0.34;100.00;101162.13;5070077;28;20166;-79
2022/01/06 05:38:32;;;;;;;1.98;1.00;;;;;;;-0.39;100.00;101164.72;5070922;28;20182;-79
2022/01/06 05:40:57;;;;;;;4.22;1.13;;;;;;;-0.53;100.00;101168.91;5069324;28;20204;-78
2022/01/06 05:43:24;;;;;;;7.45;2.17;;;;;;;-0.55;100.00;101174.13;5069944;28;20201;-77
2022/01/06 05:45:51;;;;;;;2.10;1.40;;;;;;;-0.54;100.00;101170.66;5070427;28;20722;-78
2022/01/06 05:48:17;;;;;;;2.75;1.50;;;;;;;-0.54;100.00;101175.06;5070940;28;20186;-77
2022/01/06 05:50:43;;;;;;;2.42;1.10;;;;;;;-0.50;100.00;101176.84;5070709;28;20324;-77
2022/01/06 05:53:08;;;;;;;4.18;1.23;;;;;;;-0.45;100.00;101185.69;5069819;28;20199;-77
2022/01/06 05:55:33;;;;;;;2.33;1.20;;;;;;;-0.49;100.00;101179.47;5070671;28;20654;-78
2022/01/06 05:57:59;;;;;;;2.45;1.25;;;;;;;-0.54;100.00;101186.44;5070970;28;20269;-78
2022/01/06 06:00:24;;;;;;;3.72;1.40;;;;;;;-0.61;100.00;101200.41;5069790;28;20163;-77
2022/01/06 06:02:50;;;;;;;2.97;1.30;;;;;;;-0.61;100.00;101197.78;5070087;28;20206;-79
2022/01/06 06:05:15;;;;;;;6.40;1.60;;;;;;;-0.72;100.00;101194.09;5070528;28;20262;-78
2022/01/06 06:07:41;;;;;;;3.28;1.33;;;;;;;-0.70;100.00;101185.38;5075445;28;20227;-77
2022/01/06 06:10:07;;;;;;;3.05;1.27;;;;;;;-0.64;100.00;101190.69;5056060;28;20195;-79
2022/01/06 06:12:32;;;;;;;1.75;1.60;;;;;;;-0.71;100.00;101187.97;5070791;28;20194;-78
2022/01/06 06:14:58;;;;;;;2.22;1.17;;;;;;;-0.72;100.00;101202.88;5071636;28;20545;-79
2022/01/06 06:17:23;;;;;;;2.35;1.13;;;;;;;-0.77;100.00;101211.56;5074638;28;20224;-78
2022/01/06 06:19:48;;;;;;;6.65;1.60;;;;;;;-0.85;100.00;101220.22;5075862;28;20166;-79
2022/01/06 06:22:14;;;;;;;4.35;1.20;;;;;;;-0.83;100.00;101225.53;5074448;28;20305;-79
2022/01/06 06:24:39;;;;;;;3.50;1.10;;;;;;;-0.87;100.00;101229.84;5075390;28;20233;-79
2022/01/06 06:27:06;;;;;;;4.68;1.50;;;;;;;-0.81;100.00;101222.91;5064097;28;20198;-80
2022/01/06 06:29:31;;;;;;;4.45;1.50;;;;;;;-0.89;100.00;101221.03;5054361;28;20198;-79
2022/01/06 06:31:57;;;;;;;5.10;1.80;;;;;;;-1.04;100.00;101231.34;5034661;28;20203;-79
2022/01/06 06:34:22;;;;;;;3.03;1.38;;;;;;;-0.96;100.00;101227.09;5053195;28;20217;-78
2022/01/06 06:36:48;;;;;;;2.97;1.38;;;;;;;-1.00;100.00;101225.25;5050028;28;20652;-77
2022/01/06 06:39:13;;;;;;;2.85;1.17;;;;;;;-1.04;100.00;101232.22;5052577;28;20235;-81
2022/01/06 06:41:39;;;;;;;4.07;1.55;;;;;;;-1.07;100.00;101228.66;5055632;28;20213;-78
2022/01/06 06:44:05;;;;;;;6.18;1.40;;;;;;;-1.11;100.00;101237.38;5055550;28;20640;-79
2022/01/06 06:46:30;;;;;;;2.92;1.50;;;;;;;-1.19;100.00;101255.63;5055927;28;20172;-78
2022/01/06 06:48:56;;;;;;;3.03;1.30;;;;;;;-1.22;100.00;101242.44;5051042;28;20190;-79
2022/01/06 06:51:21;;;;;;;2.50;1.10;;;;;;;-1.19;100.00;101257.38;5057725;28;20548;-79
2022/01/06 06:53:47;;;;;;;2.22;1.10;;;;;;;-1.16;100.00;101257.41;5060393;28;20167;-79
2022/01/06 06:56:13;;;;;;;2.17;1.17;;;;;;;-1.21;100.00;101264.34;5079171;28;20194;-80
2022/01/06 06:58:38;;;;;;;1.63;1.00;;;;;;;-1.26;100.00;101270.41;5074359;28;20177;-79
2022/01/06 07:01:03;;;;;;;1.70;1.20;;;;;;;-1.40;100.00;101261.44;5075574;28;20169;-79
2022/01/06 07:03:29;;;;;;;2.80;1.20;;;;;;;-1.46;100.00;101266.56;5077629;28;20189;-79
2022/01/06 07:05:54;;;;;;;2.55;1.10;;;;;;;-1.46;100.00;101275.31;5076941;28;20240;-79
2022/01/06 07:08:20;;;;;;;2.80;1.33;;;;;;;-1.49;100.00;101280.53;5078811;28;20194;-79
2022/01/06 07:10:45;;;;;;;2.95;1.27;;;;;;;-1.52;100.00;101282.22;5077895;28;20202;-79
2022/01/06 07:13:16;;;;;;;3.42;1.80;;;;;;;-1.53;100.00;101290.94;5079530;28;20284;-79
2022/01/06 07:15:42;;;;;;;3.83;1.95;;;;;;;-1.67;100.00;101280.19;5077806;28;20187;-79
2022/01/06 07:18:08;;;;;;;3.13;1.88;;;;;;;-1.73;100.00;101296.72;5077251;28;20189;-80
2022/01/06 07:20:33;;;;;;;7.28;2.30;;;;;;;-1.87;100.00;101292.94;5059701;28;20169;-79
2022/01/06 07:22:58;;;;;;;2.55;1.75;;;;;;;-1.88;100.00;101304.28;5077333;28;20194;-78
2022/01/06 07:25:24;;;;;;;2.33;1.77;;;;;;;-1.80;100.00;101313.19;5074526;28;20190;-80
2022/01/06 07:27:49;;;;;;;4.55;1.77;;;;;;;-1.84;100.00;101316.63;5058179;28;20174;-79
2022/01/06 07:30:15;;;;;;;2.15;1.60;;;;;;;-1.83;100.00;101314.91;5075630;28;20202;-80
2022/01/06 07:32:46;;;;;;;5.45;2.17;;;;;;;-1.84;100.00;101315.75;5075447;28;20195;-79
2022/01/06 07:35:15;;;;;;;3.33;1.70;;;;;;;-1.82;100.00;101322.78;5073748;28;20162;-79
2022/01/06 07:37:41;;;;;;;3.25;1.63;;;;;;;-1.76;100.00;101332.53;5057257;28;20205;-79
2022/01/06 07:40:08;;;;;;;4.13;1.73;;;;;;;-1.88;100.00;101336.69;5053665;28;20207;-79
2022/01/06 07:42:34;;;;;;;3.13;1.38;;;;;;;-1.86;100.00;101347.22;5055404;28;20274;-79
2022/01/06 07:45:00;;;;;;;4.35;1.83;;;;;;;-1.87;100.00;101346.34;5053235;28;20202;-79
2022/01/06 07:47:28;;;;;;;3.33;1.70;;;;;;;-1.78;100.00;101353.53;5051846;28;20184;-78
2022/01/06 07:49:54;;;;;;;4.10;1.85;;;;;;;-1.83;100.00;101351.66;5034927;28;20219;-78
2022/01/06 07:52:21;;;;;;;4.20;1.80;;;;;;;-1.83;100.00;101352.53;5036121;28;20204;-79
2022/01/06 07:54:47;;;;;;;3.75;1.80;;;;;;;-1.84;100.00;101353.38;5015419;28;20171;-80
2022/01/06 07:57:12;;;;;;;3.85;1.50;;;;;;;-1.83;100.00;101365.69;5034185;28;20246;-79
2022/01/06 07:59:38;;;;;;;3.53;1.35;;;;;;;-1.82;100.00;101374.44;5031221;28;20168;-79
2022/01/06 08:02:03;;;;;;;2.40;1.48;;;;;;;-1.86;100.00;101368.22;5034062;28;20196;-79
2022/01/06 08:04:29;;;;;;;2.78;1.40;;;;;;;-1.88;100.00;101375.19;5047632;28;20273;-79
2022/01/06 08:06:54;;;;;;;3.15;1.98;;;;;;;-1.82;100.00;101383.19;5055921;28;20587;-79
2022/01/06 08:09:19;;;;;;;3.28;1.52;;;;;;;-1.90;100.00;101398.81;5054821;28;20200;-80
2022/01/06 08:11:45;;;;;;;4.50;1.50;;;;;;;-1.93;100.00;101400.47;5052834;28;20270;-79
2022/01/06 08:14:10;;;;;;;2.67;1.70;;;;;;;-1.95;100.00;101412.66;5036404;28;20182;-79
2022/01/06 08:16:36;;;;;;;2.42;1.60;;;;;;;-1.97;100.00;101411.75;5055423;28;20167;-78
2022/01/06 08:19:01;;;;;;;5.85;1.80;;;;;;;-1.97;100.00;101411.75;5034214;28;20180;-79
2022/01/06 08:21:27;;;;;;;4.57;1.80;;;;;;;-1.97;100.00;101422.25;5036816;28;20191;-79
2022/01/06 08:23:52;;;;;;;4.57;1.90;;;;;;;-1.99;100.00;101431.81;5015471;28;20491;-80
2022/01/06 08:26:18;;;;;;;2.50;1.50;;;;;;;-1.91;100.00;101418.03;5050471;28;20442;-80
2022/01/06 08:28:47;;;;;;;4.53;2.78;;;;;;;-1.95;100.00;101431.06;5055795;28;20168;-79
2022/01/06 08:31:15;;;;;;;8.02;2.00;;;;;;;-2.05;100.00;101442.22;5052963;28;20198;-79
2022/01/06 08:33:40;;;;;;;3.40;1.67;;;;;;;-2.01;100.00;101446.66;5051340;28;20167;-77
2022/01/06 08:36:05;;;;;;;2.72;1.55;;;;;;;-1.94;100.00;101445.97;5050979;28;20198;-78
2022/01/06 08:38:31;;;;;;;4.85;2.00;;;;;;;-1.95;100.00;101445.06;5067899;28;20172;-78
2022/01/06 08:40:57;;;;;;;6.60;2.38;;;;;;;-1.86;100.00;101439.13;5035352;28;20180;-78
2022/01/06 08:43:27;;;;;;;3.58;1.80;;;;;;;-1.77;100.00;101451.56;5051237;28;20203;-78
2022/01/06 08:45:54;;;;;;;6.53;1.92;;;;;;;-1.63;100.00;101454.53;5051132;28;20163;-79
2022/01/06 08:48:20;;;;;;;2.28;1.80;;;;;;;-1.57;100.00;101442.41;5054104;28;20197;-78
2022/01/06 08:50:46;;;;;;;3.40;1.92;;;;;;;-1.54;100.00;101445.09;5053359;28;20207;-78
2022/01/06 08:53:11;;;;;;;3.25;2.38;;;;;;;-1.57;100.00;101438.91;5054279;28;20893;-80
2022/01/06 08:55:37;;;;;;;3.88;2.50;;;;;;;-1.64;100.00;101443.13;5033655;28;20190;-78
2022/01/06 08:58:03;;;;;;;2.83;2.20;;;;;;;-1.63;100.00;101439.66;5051115;28;20233;-79
2022/01/06 09:00:30;;;;;;;5.60;2.70;;;;;;;-1.57;100.00;101444.16;5052021;28;20163;-79
2022/01/06 09:02:59;;;;;;;2.35;2.03;;;;;;;-1.22;100.00;101433.44;5052112;28;20206;-78
2022/01/06 09:05:25;;;;;;;5.03;2.58;;;;;;;-1.38;100.00;101435.78;5045309;28;20180;-79
2022/01/06 09:07:50;;;;;;;4.68;3.15;;;;;;;-1.20;100.00;101444.88;5051681;28;20180;-79
2022/01/06 09:10:16;;;;;;;5.13;2.92;;;;;;;-1.38;100.00;101446.28;5051129;28;20207;-78
2022/01/06 09:12:42;;;;;;;4.80;2.35;;;;;;;-1.46;100.00;101453.16;5051296;28;20199;-79
2022/01/06 09:15:10;;;;;;;4.88;3.10;;;;;;;-1.54;100.00;101446.84;5033437;28;20187;-77
2022/01/06 09:17:36;;;;;;;4.55;3.00;;;;;;;-1.38;100.00;101455.91;5050901;28;20180;-78
2022/01/06 09:20:07;;;;;;;5.65;3.45;;;;;;;-1.41;100.00;101453.25;5033656;28;20275;-79
2022/01/06 09:22:32;;;;;;;7.85;3.45;;;;;;;-1.15;100.00;101445.88;5035649;28;20192;-79
2022/01/06 09:24:58;;;;;;;7.07;3.80;;;;;;;-1.07;100.00;101439.03;5035912;28;20527;-79
2022/01/06 09:27:23;;;;;;;6.15;3.25;;;;;;;-1.00;100.00;101458.44;5044081;28;20187;-78
2022/01/06 09:29:52;;;;;;;5.22;3.08;;;;;;;-0.83;100.00;101454.38;5046261;28;20204;-78
2022/01/06 09:32:17;;;;;;;3.80;2.45;;;;;;;-0.75;100.00;101455.41;5041911;28;20221;-78
2022/01/06 09:34:42;;;;;;;7.30;3.08;;;;;;;-0.74;100.00;101453.66;5029751;28;20554;-79
2022/01/06 09:37:08;;;;;;;7.00;2.65;;;;;;;-0.66;100.00;101465.19;5028468;28;20187;-78
2022/01/06 09:39:33;;;;;;;7.78;3.35;;;;;;;-0.59;100.00;101461.84;5049935;28;20175;-79
2022/01/06 09:41:59;;;;;;;6.18;3.00;;;;;;;-0.65;100.00;101462.59;5049198;28;20206;-78
2022/01/06 09:44:25;;;;;;;7.90;2.20;;;;;;;-0.44;100.00;101458.56;5050277;28;20220;-80
2022/01/06 09:46:50;;;;;;;4.43;2.20;;;;;;;-0.35;100.00;101471.00;5048111;28;20262;-80
2022/01/06 09:49:16;;;;;;;6.72;2.35;;;;;;;-0.43;100.00;101461.22;5051550;28;20175;-78
2022/01/06 09:51:42;;;;;;;7.00;1.90;;;;;;;-0.34;100.00;101468.41;5052568;28;20226;-80
2022/01/06 09:54:07;;;;;;;8.13;2.45;;;;;;;-0.19;100.00;101470.41;5051116;28;20186;-79
2022/01/06 09:56:33;;;;;;;5.05;2.25;;;;;;;0.01;100.00;101472.47;5050343;28;20221;-79
2022/01/06 09:58:59;;;;;;;8.40;1.75;;;;;;;0.17;100.00;101462.16;5052312;28;20217;-78
2022/01/06 10:01:25;;;;;;;5.72;1.70;;;;;;;0.14;99.53;101477.06;5050212;28;20262;-78
2022/01/06 10:03:50;;;;;;;8.88;1.90;;;;;;;0.13;99.05;101472.63;5043100;28;20206;-78
2022/01/06 10:06:21;;;;;;;5.20;1.98;;;;;;;0.25;98.64;101486.00;5063427;28;20191;-79
2022/01/06 10:08:54;;;;;;;7.35;1.80;;;;;;;0.24;97.99;101486.88;5050178;28;20198;-79
2022/01/06 10:11:25;;;;;;;7.88;1.85;;;;;;;0.24;97.78;101485.97;5051253;28;20226;-78
2022/01/06 10:14:04;;;;;;;5.10;1.92;;;;;;;0.49;96.96;101479.31;5047957;28;20180;-79
2022/01/06 10:16:32;;;;;;;6.95;2.95;;;;;;;0.41;96.86;101476.53;5048951;28;20879;-79
2022/01/06 10:19:05;;;;;;;3.88;1.83;;;;;;;0.59;96.51;101473.25;5036099;28;20443;-79
2022/01/06 10:21:35;;;;;;;8.27;2.30;;;;;;;0.47;96.20;101481.91;5049835;28;20187;-79
2022/01/06 10:24:06;;;;;;;6.57;2.05;;;;;;;0.60;95.88;101483.84;5036329;28;20187;-78
2022/01/06 10:26:33;;;;;;;4.43;2.22;;;;;;;0.57;95.84;101485.56;5052259;28;20164;-79
2022/01/06 10:28:59;;;;;;;9.32;2.33;;;;;;;0.43;95.13;101492.41;5036799;28;20182;-79
2022/01/06 10:31:26;;;;;;;6.57;2.00;;;;;;;0.49;95.15;101481.94;5037808;28;20295;-79
2022/01/06 10:33:52;;;;;;;6.28;3.50;;;;;;;0.67;95.05;101492.72;5035837;28;20421;-80
2022/01/06 10:36:18;;;;;;;3.28;2.30;;;;;;;0.75;94.96;101493.72;5038745;28;20559;-80
2022/01/06 10:38:53;;;;;;;4.97;1.92;;;;;;;0.79;94.19;101494.66;5037397;28;20247;-80
2022/01/06 10:41:19;;;;;;;6.53;2.38;;;;;;;0.77;94.09;101505.16;5038722;28;20203;-80
2022/01/06 10:43:49;;;;;;;8.35;2.55;;;;;;;0.63;94.25;101504.09;5051432;28;20176;-80
2022/01/06 10:46:15;;;;;;;4.80;1.80;;;;;;;0.70;94.75;101499.78;5038328;28;20172;-79
2022/01/06 10:48:44;;;;;;;6.85;2.30;;;;;;;0.63;94.70;101501.44;5038698;28;20556;-79
2022/01/06 10:51:10;;;;;;;7.53;1.83;;;;;;;0.63;94.52;101493.53;5038867;28;20574;-79
2022/01/06 10:53:49;;;;;;;10.23;2.10;;;;;;;0.46;94.48;101498.59;5037120;28;20263;-80
2022/01/06 10:56:18;;;;;;;3.67;1.80;;;;;;;0.65;94.88;101510.28;5036378;28;20175;-80
2022/01/06 10:58:45;;;;;;;4.53;1.80;;;;;;;0.72;95.34;101504.22;5036015;28;20180;-80
2022/01/06 11:01:16;;;;;;;7.18;1.88;;;;;;;0.66;94.67;101513.81;5052752;28;20851;-80
2022/01/06 11:03:41;;;;;;;5.00;1.88;;;;;;;0.68;94.90;101520.88;5037753;28;20207;-80
2022/01/06 11:06:07;;;;;;;3.13;1.88;;;;;;;0.58;94.95;101517.22;5036094;28;20184;-80
2022/01/06 11:08:39;;;;;;;7.47;2.15;;;;;;;0.50;95.28;101513.56;5036561;28;20221;-80
2022/01/06 11:13:33;;;;;;;8.85;2.10;;;;;;;0.66;94.91;101503.28;5037077;28;20221;-77
2022/01/06 11:15:59;;;;;;;4.72;1.73;;;;;;;0.74;94.76;101504.22;5031874;28;20300;-79
2022/01/06 11:18:25;;;;;;;4.90;2.38;;;;;;;0.60;94.27;101498.78;5037403;28;20191;-80
2022/01/06 11:20:52;;;;;;;5.30;2.08;;;;;;;0.56;94.37;101505.75;5035753;28;20179;-79
2022/01/06 11:23:22;;;;;;;6.72;1.88;;;;;;;0.64;94.79;101505.00;5035140;28;20199;-80
2022/01/06 11:26:01;;;;;;;6.18;1.95;;;;;;;0.65;93.92;101507.63;5052135;28;20180;-79
2022/01/06 11:28:30;;;;;;;10.27;1.95;;;;;;;0.71;93.69;101506.84;5038285;28;20609;-78